PATA/TAL METAR and TAF weather

Enter ICAO airport designator
Station Type Date Time Source
PATA METAR 2020/11/28 19:52 UTC NOAA

PATA 281952Z 36003KT 10SM FEW100 M17/M19 A2915 RMK AO2 SLP880 T11721194


Station Type Date Time Source
PATA Decoded METAR 2020/11/28 19:52 UTC NOAA

TANANA CALHOUN MEMORIAL AIRPORT , AK, United States (PATA) 65-10N 152-06W 67M
Nov 28, 2020 - 02:52 PM EST / 2020.11.28 1952 UTC
Wind: from the N (360 degrees) at 3 MPH (3 KT):0
Visibility: 10 mile(s):0
Sky conditions: mostly clear
Temperature: 1.0 F (-17.2 C)
Dew Point: -2.9 F (-19.4 C)
Relative Humidity: 82%
Pressure (altimeter): 29.15 in. Hg (987 hPa)
ob: PATA 281952Z 36003KT 10SM FEW100 M17/M19 A2915 RMK AO2 SLP880 T11721194
cycle: 20

Station Type Date Time Source
PATA TAF 2020/11/28 18:33 UTC NOAA

TAF PATA 281730Z 2818/2918 09004KT P6SM SCT100 BKN200

Example: see airport list